sensor_id;sensor_type;location;lat;lon;timestamp;pressure;altitude;pressure_sealevel;temperature;humidity
77299;BME280;66361;52.034;20.656;2023-02-08T00:01:56;102492.50;;;-1.51;95.34
77299;BME280;66361;52.034;20.656;2023-02-08T00:05:59;102491.56;;;-1.55;95.61
77299;BME280;66361;52.034;20.656;2023-02-08T00:10:03;102495.91;;;-1.55;95.91
77299;BME280;66361;52.034;20.656;2023-02-08T00:14:07;102501.94;;;-1.55;94.75
77299;BME280;66361;52.034;20.656;2023-02-08T00:18:14;102501.97;;;-1.53;95.05
77299;BME280;66361;52.034;20.656;2023-02-08T00:22:17;102498.50;;;-1.54;95.29
77299;BME280;66361;52.034;20.656;2023-02-08T00:26:20;102507.16;;;-1.53;94.67
77299;BME280;66361;52.034;20.656;2023-02-08T00:30:24;102503.69;;;-1.54;94.39
77299;BME280;66361;52.034;20.656;2023-02-08T00:34:29;102499.31;;;-1.56;94.38
77299;BME280;66361;52.034;20.656;2023-02-08T00:38:35;102502.72;;;-1.59;94.29
77299;BME280;66361;52.034;20.656;2023-02-08T00:42:39;102507.03;;;-1.59;94.13
77299;BME280;66361;52.034;20.656;2023-02-08T00:46:42;102508.66;;;-1.63;94.31
77299;BME280;66361;52.034;20.656;2023-02-08T00:50:57;102509.50;;;-1.64;94.30
77299;BME280;66361;52.034;20.656;2023-02-08T00:55:01;102509.41;;;-1.67;95.12
77299;BME280;66361;52.034;20.656;2023-02-08T00:59:04;102511.97;;;-1.68;95.02
77299;BME280;66361;52.034;20.656;2023-02-08T01:03:07;102507.59;;;-1.71;94.60
77299;BME280;66361;52.034;20.656;2023-02-08T01:07:12;102504.06;;;-1.73;95.46
77299;BME280;66361;52.034;20.656;2023-02-08T01:11:19;102507.53;;;-1.74;94.85
77299;BME280;66361;52.034;20.656;2023-02-08T01:15:25;102505.75;;;-1.75;95.48
77299;BME280;66361;52.034;20.656;2023-02-08T01:19:31;102504.00;;;-1.76;95.49
77299;BME280;66361;52.034;20.656;2023-02-08T01:23:36;102511.72;;;-1.77;95.70
77299;BME280;66361;52.034;20.656;2023-02-08T01:27:39;102505.72;;;-1.76;95.03
77299;BME280;66361;52.034;20.656;2023-02-08T01:31:45;102515.28;;;-1.74;94.95
77299;BME280;66361;52.034;20.656;2023-02-08T01:35:49;102517.91;;;-1.72;95.67
77299;BME280;66361;52.034;20.656;2023-02-08T01:39:55;102516.19;;;-1.72;96.10
77299;BME280;66361;52.034;20.656;2023-02-08T01:44:02;102519.59;;;-1.73;95.18
77299;BME280;66361;52.034;20.656;2023-02-08T01:48:08;102515.25;;;-1.75;94.85
77299;BME280;66361;52.034;20.656;2023-02-08T01:52:17;102510.88;;;-1.76;95.25
77299;BME280;66361;52.034;20.656;2023-02-08T01:56:26;102521.25;;;-1.76;95.68
77299;BME280;66361;52.034;20.656;2023-02-08T02:00:31;102524.63;;;-1.79;94.90
77299;BME280;66361;52.034;20.656;2023-02-08T02:04:34;102530.66;;;-1.80;94.22
77299;BME280;66361;52.034;20.656;2023-02-08T02:08:41;102525.44;;;-1.81;95.21
77299;BME280;66361;52.034;20.656;2023-02-08T02:12:49;102531.44;;;-1.82;94.96
77299;BME280;66361;52.034;20.656;2023-02-08T02:16:56;102528.81;;;-1.84;94.64
77299;BME280;66361;52.034;20.656;2023-02-08T02:21:22;102527.09;;;-1.83;94.21
77299;BME280;66361;52.034;20.656;2023-02-08T02:30:33;102538.28;;;-1.86;95.16
77299;BME280;66361;52.034;20.656;2023-02-08T02:34:45;102534.81;;;-1.86;95.13
77299;BME280;66361;52.034;20.656;2023-02-08T02:38:59;102533.03;;;-1.87;96.17
77299;BME280;66361;52.034;20.656;2023-02-08T02:43:12;102537.31;;;-1.89;95.78
77299;BME280;66361;52.034;20.656;2023-02-08T02:47:42;102535.50;;;-1.92;95.79
77299;BME280;66361;52.034;20.656;2023-02-08T02:52:08;102538.94;;;-1.93;96.90
77299;BME280;66361;52.034;20.656;2023-02-08T02:56:15;102541.47;;;-1.95;96.67
77299;BME280;66361;52.034;20.656;2023-02-08T03:00:22;102543.94;;;-1.99;97.08
77299;BME280;66361;52.034;20.656;2023-02-08T03:04:51;102546.53;;;-1.99;97.20
77299;BME280;66361;52.034;20.656;2023-02-08T03:09:12;102537.88;;;-2.01;97.52
77299;BME280;66361;52.034;20.656;2023-02-08T03:13:26;102533.53;;;-2.02;97.06
77299;BME280;66361;52.034;20.656;2023-02-08T03:17:44;102542.09;;;-2.05;96.23
77299;BME280;66361;52.034;20.656;2023-02-08T03:21:55;102543.00;;;-2.03;96.85
77299;BME280;66361;52.034;20.656;2023-02-08T03:26:05;102547.34;;;-2.02;96.63
77299;BME280;66361;52.034;20.656;2023-02-08T03:30:14;102545.50;;;-2.06;96.84
77299;BME280;66361;52.034;20.656;2023-02-08T03:34:22;102553.22;;;-2.07;96.54
77299;BME280;66361;52.034;20.656;2023-02-08T03:38:32;102551.47;;;-2.08;96.27
77299;BME280;66361;52.034;20.656;2023-02-08T03:42:39;102550.66;;;-2.06;97.24
77299;BME280;66361;52.034;20.656;2023-02-08T03:46:47;102550.66;;;-2.06;96.34
77299;BME280;66361;52.034;20.656;2023-02-08T03:50:54;102562.72;;;-2.08;95.71
77299;BME280;66361;52.034;20.656;2023-02-08T03:55:01;102563.53;;;-2.09;96.29
77299;BME280;66361;52.034;20.656;2023-02-08T03:59:10;102560.91;;;-2.10;96.93
77299;BME280;66361;52.034;20.656;2023-02-08T04:03:19;102558.22;;;-2.13;97.64
77299;BME280;66361;52.034;20.656;2023-02-08T04:07:24;102561.63;;;-2.16;97.53
77299;BME280;66361;52.034;20.656;2023-02-08T04:11:27;102562.38;;;-2.18;98.35
77299;BME280;66361;52.034;20.656;2023-02-08T04:15:32;102564.94;;;-2.20;98.83
77299;BME280;66361;52.034;20.656;2023-02-08T04:19:35;102574.38;;;-2.22;99.39
77299;BME280;66361;52.034;20.656;2023-02-08T04:23:38;102572.66;;;-2.21;98.32
77299;BME280;66361;52.034;20.656;2023-02-08T04:27:42;102566.59;;;-2.22;98.46
77299;BME280;66361;52.034;20.656;2023-02-08T04:31:46;102561.41;;;-2.23;99.85
77299;BME280;66361;52.034;20.656;2023-02-08T04:35:49;102572.66;;;-2.21;99.16
77299;BME280;66361;52.034;20.656;2023-02-08T04:39:52;102577.81;;;-2.23;98.90
77299;BME280;66361;52.034;20.656;2023-02-08T04:43:55;102570.03;;;-2.23;99.92
77299;BME280;66361;52.034;20.656;2023-02-08T04:48:02;102576.03;;;-2.24;100.00
77299;BME280;66361;52.034;20.656;2023-02-08T04:52:08;102573.47;;;-2.24;100.00
77299;BME280;66361;52.034;20.656;2023-02-08T05:02:03;102582.03;;;-2.25;100.00
77299;BME280;66361;52.034;20.656;2023-02-08T05:06:07;102579.47;;;-2.25;99.89
77299;BME280;66361;52.034;20.656;2023-02-08T05:10:10;102582.03;;;-2.25;100.00
77299;BME280;66361;52.034;20.656;2023-02-08T05:14:13;102585.44;;;-2.26;100.00
77299;BME280;66361;52.034;20.656;2023-02-08T05:18:16;102594.94;;;-2.26;100.00
77299;BME280;66361;52.034;20.656;2023-02-08T05:22:21;102600.13;;;-2.26;100.00
77299;BME280;66361;52.034;20.656;2023-02-08T05:26:24;102604.50;;;-2.24;100.00
77299;BME280;66361;52.034;20.656;2023-02-08T05:30:27;102609.66;;;-2.24;100.00
77299;BME280;66361;52.034;20.656;2023-02-08T05:34:31;102610.56;;;-2.23;100.00
77299;BME280;66361;52.034;20.656;2023-02-08T05:38:36;102614.03;;;-2.21;100.00
77299;BME280;66361;52.034;20.656;2023-02-08T05:42:39;102610.56;;;-2.22;100.00
77299;BME280;66361;52.034;20.656;2023-02-08T05:46:43;102626.16;;;-2.20;100.00
77299;BME280;66361;52.034;20.656;2023-02-08T05:50:46;102622.63;;;-2.22;100.00
77299;BME280;66361;52.034;20.656;2023-02-08T05:54:51;102629.56;;;-2.21;100.00
77299;BME280;66361;52.034;20.656;2023-02-08T05:58:54;102626.16;;;-2.20;100.00
77299;BME280;66361;52.034;20.656;2023-02-08T06:02:57;102631.41;;;-2.17;100.00
77299;BME280;66361;52.034;20.656;2023-02-08T06:07:00;102640.88;;;-2.18;100.00
77299;BME280;66361;52.034;20.656;2023-02-08T06:11:08;102648.69;;;-2.16;100.00
77299;BME280;66361;52.034;20.656;2023-02-08T06:15:14;102653.06;;;-2.14;100.00
77299;BME280;66361;52.034;20.656;2023-02-08T06:19:17;102661.75;;;-2.12;100.00
77299;BME280;66361;52.034;20.656;2023-02-08T06:23:21;102655.69;;;-2.12;100.00
77299;BME280;66361;52.034;20.656;2023-02-08T06:27:25;102648.84;;;-2.10;100.00
77299;BME280;66361;52.034;20.656;2023-02-08T06:31:28;102663.69;;;-2.05;100.00
77299;BME280;66361;52.034;20.656;2023-02-08T06:35:32;102667.22;;;-2.01;100.00
77299;BME280;66361;52.034;20.656;2023-02-08T06:39:35;102665.69;;;-1.95;100.00
77299;BME280;66361;52.034;20.656;2023-02-08T06:43:39;102667.53;;;-1.90;100.00
77299;BME280;66361;52.034;20.656;2023-02-08T06:47:43;102666.84;;;-1.85;100.00
77299;BME280;66361;52.034;20.656;2023-02-08T06:51:46;102677.34;;;-1.79;99.65
77299;BME280;66361;52.034;20.656;2023-02-08T06:55:49;102676.63;;;-1.73;98.84
77299;BME280;66361;52.034;20.656;2023-02-08T06:59:54;102691.47;;;-1.68;98.69
77299;BME280;66361;52.034;20.656;2023-02-08T07:03:58;102686.56;;;-1.59;98.44
77299;BME280;66361;52.034;20.656;2023-02-08T07:08:00;102694.50;;;-1.51;97.49
77299;BME280;66361;52.034;20.656;2023-02-08T07:12:04;102705.06;;;-1.44;97.69
77299;BME280;66361;52.034;20.656;2023-02-08T07:16:09;102708.78;;;-1.34;95.63
77299;BME280;66361;52.034;20.656;2023-02-08T07:20:13;102710.75;;;-1.25;95.61
77299;BME280;66361;52.034;20.656;2023-02-08T07:24:16;102713.53;;;-1.18;94.60
77299;BME280;66361;52.034;20.656;2023-02-08T07:28:19;102710.22;;;-1.12;93.17
77299;BME280;66361;52.034;20.656;2023-02-08T07:32:24;102716.53;;;-1.03;93.49
77299;BME280;66361;52.034;20.656;2023-02-08T07:36:27;102715.78;;;-0.97;91.48
77299;BME280;66361;52.034;20.656;2023-02-08T07:40:30;102711.69;;;-0.87;91.04
77299;BME280;66361;52.034;20.656;2023-02-08T07:44:37;102714.66;;;-0.74;90.73
77299;BME280;66361;52.034;20.656;2023-02-08T07:48:42;102712.41;;;-0.59;90.09
77299;BME280;66361;52.034;20.656;2023-02-08T07:52:45;102706.75;;;-0.42;90.20
77299;BME280;66361;52.034;20.656;2023-02-08T07:56:49;102713.06;;;-0.30;88.87
77299;BME280;66361;52.034;20.656;2023-02-08T08:00:52;102706.38;;;-0.20;88.11
77299;BME280;66361;52.034;20.656;2023-02-08T08:04:56;102705.78;;;-0.07;86.48
77299;BME280;66361;52.034;20.656;2023-02-08T08:08:59;102718.00;;;-0.03;85.66
77299;BME280;66361;52.034;20.656;2023-02-08T08:13:02;102721.63;;;0.05;86.18
77299;BME280;66361;52.034;20.656;2023-02-08T08:17:05;102719.16;;;0.11;85.83
77299;BME280;66361;52.034;20.656;2023-02-08T08:21:10;102734.00;;;0.18;85.09
77299;BME280;66361;52.034;20.656;2023-02-08T08:25:17;102727.16;;;0.22;84.65
77299;BME280;66361;52.034;20.656;2023-02-08T08:29:20;102726.31;;;0.23;84.66
77299;BME280;66361;52.034;20.656;2023-02-08T08:33:23;102729.00;;;0.27;84.32
77299;BME280;66361;52.034;20.656;2023-02-08T08:37:28;102732.59;;;0.34;84.38
77299;BME280;66361;52.034;20.656;2023-02-08T08:41:31;102721.31;;;0.32;83.76
77299;BME280;66361;52.034;20.656;2023-02-08T08:45:33;102729.31;;;0.42;84.75
77299;BME280;66361;52.034;20.656;2023-02-08T08:49:37;102727.81;;;0.55;85.02
77299;BME280;66361;52.034;20.656;2023-02-08T08:53:41;102739.38;;;0.71;84.35
77299;BME280;66361;52.034;20.656;2023-02-08T08:57:44;102735.38;;;0.88;83.39
77299;BME280;66361;52.034;20.656;2023-02-08T09:01:47;102737.38;;;1.03;83.18
77299;BME280;66361;52.034;20.656;2023-02-08T09:05:50;102738.53;;;1.18;82.08
77299;BME280;66361;52.034;20.656;2023-02-08T09:09:55;102739.66;;;1.35;81.70
77299;BME280;66361;52.034;20.656;2023-02-08T09:13:58;102746.09;;;1.59;81.64
77299;BME280;66361;52.034;20.656;2023-02-08T09:18:04;102741.03;;;1.66;80.16
77299;BME280;66361;52.034;20.656;2023-02-08T09:22:07;102738.69;;;1.84;79.11
77299;BME280;66361;52.034;20.656;2023-02-08T09:26:14;102735.56;;;2.13;77.84
77299;BME280;66361;52.034;20.656;2023-02-08T09:30:17;102742.06;;;2.45;77.65
77299;BME280;66361;52.034;20.656;2023-02-08T09:34:22;102745.78;;;2.67;74.52
77299;BME280;66361;52.034;20.656;2023-02-08T09:38:25;102755.78;;;3.10;73.93
77299;BME280;66361;52.034;20.656;2023-02-08T09:42:35;102754.13;;;3.17;72.32
77299;BME280;66361;52.034;20.656;2023-02-08T09:46:46;102754.91;;;3.05;70.61
77299;BME280;66361;52.034;20.656;2023-02-08T09:50:54;102756.72;;;3.15;70.51
77299;BME280;66361;52.034;20.656;2023-02-08T09:55:04;102756.44;;;2.88;70.53
77299;BME280;66361;52.034;20.656;2023-02-08T09:59:16;102751.28;;;2.91;70.53
77299;BME280;66361;52.034;20.656;2023-02-08T10:03:31;102746.06;;;2.92;71.18
77299;BME280;66361;52.034;20.656;2023-02-08T10:07:36;102753.13;;;3.04;71.64
77299;BME280;66361;52.034;20.656;2023-02-08T10:11:47;102763.63;;;3.10;71.29
77299;BME280;66361;52.034;20.656;2023-02-08T10:15:59;102764.72;;;3.35;69.46
77299;BME280;66361;52.034;20.656;2023-02-08T10:20:13;102748.34;;;3.54;67.31
77299;BME280;66361;52.034;20.656;2023-02-08T10:24:42;102757.84;;;3.44;66.05
77299;BME280;66361;52.034;20.656;2023-02-08T10:29:00;102744.09;;;3.65;66.81
77299;BME280;66361;52.034;20.656;2023-02-08T10:33:14;102754.59;;;3.76;67.33
77299;BME280;66361;52.034;20.656;2023-02-08T10:37:20;102751.91;;;3.62;67.09
77299;BME280;66361;52.034;20.656;2023-02-08T10:41:26;102750.72;;;3.25;67.06
77299;BME280;66361;52.034;20.656;2023-02-08T10:45:36;102739.22;;;3.02;65.74
77299;BME280;66361;52.034;20.656;2023-02-08T10:49:49;102742.59;;;2.95;62.97
77299;BME280;66361;52.034;20.656;2023-02-08T10:54:01;102734.72;;;2.87;63.10
77299;BME280;66361;52.034;20.656;2023-02-08T10:58:05;102742.59;;;2.90;62.69
77299;BME280;66361;52.034;20.656;2023-02-08T11:02:19;102738.38;;;3.05;59.73
77299;BME280;66361;52.034;20.656;2023-02-08T11:06:27;102727.97;;;3.06;60.71
77299;BME280;66361;52.034;20.656;2023-02-08T11:10:31;102721.94;;;3.18;60.50
77299;BME280;66361;52.034;20.656;2023-02-08T11:14:39;102721.72;;;2.95;58.26
77299;BME280;66361;52.034;20.656;2023-02-08T11:18:50;102725.19;;;2.89;59.68
77299;BME280;66361;52.034;20.656;2023-02-08T11:22:55;102720.03;;;2.97;61.04
77299;BME280;66361;52.034;20.656;2023-02-08T11:27:00;102722.53;;;2.86;58.29
77299;BME280;66361;52.034;20.656;2023-02-08T11:31:08;102720.09;;;3.05;56.49
77299;BME280;66361;52.034;20.656;2023-02-08T11:35:20;102713.50;;;3.52;56.51
77299;BME280;66361;52.034;20.656;2023-02-08T11:39:32;102713.66;;;3.78;54.09
77299;BME280;66361;52.034;20.656;2023-02-08T11:43:56;102712.72;;;3.61;52.50
77299;BME280;66361;52.034;20.656;2023-02-08T11:48:02;102714.50;;;3.68;53.17
77299;BME280;66361;52.034;20.656;2023-02-08T11:52:19;102712.91;;;3.97;55.66
77299;BME280;66361;52.034;20.656;2023-02-08T11:56:25;102707.69;;;3.96;53.00
77299;BME280;66361;52.034;20.656;2023-02-08T12:00:31;102707.81;;;4.27;50.84
77299;BME280;66361;52.034;20.656;2023-02-08T12:04:35;102708.75;;;4.37;51.74
77299;BME280;66361;52.034;20.656;2023-02-08T12:08:41;102712.19;;;4.34;52.03
77299;BME280;66361;52.034;20.656;2023-02-08T12:17:47;102711.94;;;3.81;50.70
77299;BME280;66361;52.034;20.656;2023-02-08T12:21:55;102710.09;;;3.61;53.60
77299;BME280;66361;52.034;20.656;2023-02-08T12:26:09;102707.25;;;3.27;52.87
77299;BME280;66361;52.034;20.656;2023-02-08T12:30:24;102714.03;;;3.06;53.21
77299;BME280;66361;52.034;20.656;2023-02-08T12:34:41;102701.94;;;3.18;54.62
77299;BME280;66361;52.034;20.656;2023-02-08T12:39:03;102695.59;;;2.89;54.46
77299;BME280;66361;52.034;20.656;2023-02-08T12:43:40;102697.50;;;3.05;55.33
77299;BME280;66361;52.034;20.656;2023-02-08T12:47:57;102681.00;;;3.11;55.30
77299;BME280;66361;52.034;20.656;2023-02-08T12:52:15;102685.25;;;2.98;54.61
77299;BME280;66361;52.034;20.656;2023-02-08T12:56:26;102687.09;;;3.11;53.56
77299;BME280;66361;52.034;20.656;2023-02-08T13:00:34;102673.94;;;2.99;55.18
77299;BME280;66361;52.034;20.656;2023-02-08T13:04:44;102675.72;;;2.99;57.23
77299;BME280;66361;52.034;20.656;2023-02-08T13:08:56;102673.06;;;2.95;54.26
77299;BME280;66361;52.034;20.656;2023-02-08T13:13:07;102665.16;;;2.83;54.35
77299;BME280;66361;52.034;20.656;2023-02-08T13:17:18;102653.06;;;2.96;53.36
77299;BME280;66361;52.034;20.656;2023-02-08T13:21:27;102658.84;;;2.63;54.87
77299;BME280;66361;52.034;20.656;2023-02-08T13:25:35;102658.34;;;2.15;55.93
77299;BME280;66361;52.034;20.656;2023-02-08T13:29:39;102651.81;;;1.78;56.92
77299;BME280;66361;52.034;20.656;2023-02-08T13:33:43;102646.38;;;1.60;57.96
77299;BME280;66361;52.034;20.656;2023-02-08T13:38:05;102648.25;;;1.73;57.28
77299;BME280;66361;52.034;20.656;2023-02-08T13:42:19;102637.03;;;1.77;56.90
77299;BME280;66361;52.034;20.656;2023-02-08T13:46:26;102640.78;;;1.97;56.67
77299;BME280;66361;52.034;20.656;2023-02-08T13:50:41;102646.88;;;2.01;58.21
77299;BME280;66361;52.034;20.656;2023-02-08T13:59:37;102655.31;;;1.83;57.54
77299;BME280;66361;52.034;20.656;2023-02-08T14:03:43;102648.19;;;1.67;58.24
77299;BME280;66361;52.034;20.656;2023-02-08T14:07:47;102648.69;;;1.40;60.75
77299;BME280;66361;52.034;20.656;2023-02-08T14:11:59;102658.44;;;0.99;63.02
77299;BME280;66361;52.034;20.656;2023-02-08T14:16:28;102655.06;;;0.55;63.15
77299;BME280;66361;52.034;20.656;2023-02-08T14:20:34;102652.78;;;0.24;65.57
77299;BME280;66361;52.034;20.656;2023-02-08T14:24:41;102659.06;;;-0.07;66.99
77299;BME280;66361;52.034;20.656;2023-02-08T14:28:53;102654.06;;;-0.38;68.53
77299;BME280;66361;52.034;20.656;2023-02-08T14:33:10;102644.88;;;-0.63;70.42
77299;BME280;66361;52.034;20.656;2023-02-08T14:37:27;102644.47;;;-0.81;70.31
77299;BME280;66361;52.034;20.656;2023-02-08T14:41:51;102641.38;;;-1.03;71.74
77299;BME280;66361;52.034;20.656;2023-02-08T14:45:57;102648.72;;;-1.19;72.60
77299;BME280;66361;52.034;20.656;2023-02-08T14:50:04;102649.22;;;-1.32;72.72
77299;BME280;66361;52.034;20.656;2023-02-08T14:54:20;102642.69;;;-1.53;74.53
77299;BME280;66361;52.034;20.656;2023-02-08T14:58:28;102658.72;;;-1.66;74.71
77299;BME280;66361;52.034;20.656;2023-02-08T15:02:38;102657.25;;;-1.87;75.56
77299;BME280;66361;52.034;20.656;2023-02-08T15:06:51;102651.28;;;-2.16;76.87
77299;BME280;66361;52.034;20.656;2023-02-08T15:11:02;102642.69;;;-2.44;78.54
77299;BME280;66361;52.034;20.656;2023-02-08T15:15:21;102648.84;;;-2.68;79.14
77299;BME280;66361;52.034;20.656;2023-02-08T15:19:28;102646.47;;;-2.89;80.48
77299;BME280;66361;52.034;20.656;2023-02-08T15:23:34;102653.69;;;-3.06;81.01
77299;BME280;66361;52.034;20.656;2023-02-08T15:27:44;102667.72;;;-3.23;80.43
77299;BME280;66361;52.034;20.656;2023-02-08T15:31:47;102658.59;;;-3.39;81.07
77299;BME280;66361;52.034;20.656;2023-02-08T15:35:57;102651.09;;;-3.56;83.42
77299;BME280;66361;52.034;20.656;2023-02-08T15:40:01;102645.47;;;-3.70;83.38
77299;BME280;66361;52.034;20.656;2023-02-08T15:44:15;102635.41;;;-3.88;84.30
77299;BME280;66361;52.034;20.656;2023-02-08T15:48:19;102633.31;;;-3.98;85.26
77299;BME280;66361;52.034;20.656;2023-02-08T15:52:24;102632.84;;;-4.10;85.65
77299;BME280;66361;52.034;20.656;2023-02-08T15:56:31;102630.66;;;-4.23;85.76
77299;BME280;66361;52.034;20.656;2023-02-08T16:00:42;102628.41;;;-4.38;86.76
77299;BME280;66361;52.034;20.656;2023-02-08T16:04:46;102628.06;;;-4.47;88.13
77299;BME280;66361;52.034;20.656;2023-02-08T16:08:54;102615.75;;;-4.54;88.59
77299;BME280;66361;52.034;20.656;2023-02-08T16:13:00;102617.31;;;-4.59;90.01
77299;BME280;66361;52.034;20.656;2023-02-08T16:21:28;102604.00;;;-4.69;91.08
77299;BME280;66361;52.034;20.656;2023-02-08T16:25:42;102598.63;;;-4.75;93.82
77299;BME280;66361;52.034;20.656;2023-02-08T16:29:46;102609.34;;;-4.87;92.11
77299;BME280;66361;52.034;20.656;2023-02-08T16:33:59;102611.63;;;-4.95;92.04
77299;BME280;66361;52.034;20.656;2023-02-08T16:38:06;102604.31;;;-5.06;91.83
77299;BME280;66361;52.034;20.656;2023-02-08T16:42:25;102600.50;;;-5.16;92.49
77299;BME280;66361;52.034;20.656;2023-02-08T16:46:30;102601.19;;;-5.20;93.30
77299;BME280;66361;52.034;20.656;2023-02-08T16:50:41;102593.94;;;-5.30;93.89
77299;BME280;66361;52.034;20.656;2023-02-08T16:54:45;102585.91;;;-5.38;93.78
77299;BME280;66361;52.034;20.656;2023-02-08T16:58:50;102591.84;;;-5.39;93.86
77299;BME280;66361;52.034;20.656;2023-02-08T17:02:54;102579.28;;;-5.52;93.65
77299;BME280;66361;52.034;20.656;2023-02-08T17:07:01;102584.00;;;-5.62;94.41
77299;BME280;66361;52.034;20.656;2023-02-08T17:11:04;102580.44;;;-5.66;95.36
77299;BME280;66361;52.034;20.656;2023-02-08T17:15:10;102571.03;;;-5.65;96.66
77299;BME280;66361;52.034;20.656;2023-02-08T17:19:16;102578.22;;;-5.77;96.18
77299;BME280;66361;52.034;20.656;2023-02-08T17:23:22;102573.59;;;-5.86;98.91
77299;BME280;66361;52.034;20.656;2023-02-08T17:27:29;102567.38;;;-5.91;98.42
77299;BME280;66361;52.034;20.656;2023-02-08T17:31:36;102577.31;;;-5.99;98.48
77299;BME280;66361;52.034;20.656;2023-02-08T17:35:45;102571.28;;;-5.99;99.98
77299;BME280;66361;52.034;20.656;2023-02-08T17:39:50;102568.03;;;-5.95;100.00
77299;BME280;66361;52.034;20.656;2023-02-08T17:43:54;102564.34;;;-6.02;100.00
77299;BME280;66361;52.034;20.656;2023-02-08T17:48:05;102562.25;;;-6.10;100.00
77299;BME280;66361;52.034;20.656;2023-02-08T17:52:12;102556.19;;;-6.12;100.00
77299;BME280;66361;52.034;20.656;2023-02-08T17:56:17;102564.75;;;-6.12;100.00
77299;BME280;66361;52.034;20.656;2023-02-08T18:00:21;102571.53;;;-6.14;100.00
77299;BME280;66361;52.034;20.656;2023-02-08T18:04:27;102561.50;;;-6.27;100.00
77299;BME280;66361;52.034;20.656;2023-02-08T18:08:31;102557.53;;;-6.40;100.00
77299;BME280;66361;52.034;20.656;2023-02-08T18:12:38;102554.63;;;-6.47;100.00
77299;BME280;66361;52.034;20.656;2023-02-08T18:16:41;102560.22;;;-6.56;100.00
77299;BME280;66361;52.034;20.656;2023-02-08T18:20:46;102562.53;;;-6.62;100.00
77299;BME280;66361;52.034;20.656;2023-02-08T18:24:50;102562.88;;;-6.73;100.00
77299;BME280;66361;52.034;20.656;2023-02-08T18:28:53;102565.31;;;-6.76;100.00
77299;BME280;66361;52.034;20.656;2023-02-08T18:32:57;102575.69;;;-6.73;100.00
77299;BME280;66361;52.034;20.656;2023-02-08T18:37:07;102565.31;;;-6.76;100.00
77299;BME280;66361;52.034;20.656;2023-02-08T18:41:12;102573.59;;;-6.82;100.00
77299;BME280;66361;52.034;20.656;2023-02-08T18:45:16;102567.22;;;-6.90;100.00
77299;BME280;66361;52.034;20.656;2023-02-08T18:49:19;102572.06;;;-6.96;100.00
77299;BME280;66361;52.034;20.656;2023-02-08T18:53:25;102566.50;;;-7.05;100.00
77299;BME280;66361;52.034;20.656;2023-02-08T18:57:29;102564.31;;;-7.15;100.00
77299;BME280;66361;52.034;20.656;2023-02-08T19:01:33;102560.47;;;-7.25;100.00
77299;BME280;66361;52.034;20.656;2023-02-08T19:05:36;102557.38;;;-7.36;100.00
77299;BME280;66361;52.034;20.656;2023-02-08T19:09:43;102551.91;;;-7.43;100.00
77299;BME280;66361;52.034;20.656;2023-02-08T19:13:49;102548.81;;;-7.54;100.00
77299;BME280;66361;52.034;20.656;2023-02-08T19:17:52;102554.53;;;-7.59;100.00
77299;BME280;66361;52.034;20.656;2023-02-08T19:21:56;102551.53;;;-7.68;100.00
77299;BME280;66361;52.034;20.656;2023-02-08T19:26:02;102558.84;;;-7.76;100.00
77299;BME280;66361;52.034;20.656;2023-02-08T19:30:07;102559.56;;;-7.78;100.00
77299;BME280;66361;52.034;20.656;2023-02-08T19:34:10;102554.88;;;-7.87;100.00
77299;BME280;66361;52.034;20.656;2023-02-08T19:38:13;102549.13;;;-7.99;100.00
77299;BME280;66361;52.034;20.656;2023-02-08T19:42:18;102536.56;;;-8.11;100.00
77299;BME280;66361;52.034;20.656;2023-02-08T19:46:22;102548.44;;;-8.13;100.00
77299;BME280;66361;52.034;20.656;2023-02-08T19:50:26;102537.94;;;-8.17;100.00
77299;BME280;66361;52.034;20.656;2023-02-08T19:54:29;102529.22;;;-8.21;100.00
77299;BME280;66361;52.034;20.656;2023-02-08T19:58:35;102525.41;;;-8.29;100.00
77299;BME280;66361;52.034;20.656;2023-02-08T20:02:38;102522.63;;;-8.34;100.00
77299;BME280;66361;52.034;20.656;2023-02-08T20:06:42;102520.53;;;-8.41;100.00
77299;BME280;66361;52.034;20.656;2023-02-08T20:10:46;102517.81;;;-8.44;100.00
77299;BME280;66361;52.034;20.656;2023-02-08T20:14:51;102514.94;;;-8.50;100.00
77299;BME280;66361;52.034;20.656;2023-02-08T20:18:57;102502.06;;;-8.51;100.00
77299;BME280;66361;52.034;20.656;2023-02-08T20:23:09;102502.94;;;-8.51;100.00
77299;BME280;66361;52.034;20.656;2023-02-08T20:27:22;102495.22;;;-8.52;100.00
77299;BME280;66361;52.034;20.656;2023-02-08T20:31:28;102490.09;;;-8.52;100.00
77299;BME280;66361;52.034;20.656;2023-02-08T20:35:35;102474.00;;;-8.50;100.00
77299;BME280;66361;52.034;20.656;2023-02-08T20:39:38;102493.72;;;-8.31;100.00
77299;BME280;66361;52.034;20.656;2023-02-08T20:43:42;102488.78;;;-8.10;100.00
77299;BME280;66361;52.034;20.656;2023-02-08T20:47:48;102484.28;;;-7.98;100.00
77299;BME280;66361;52.034;20.656;2023-02-08T20:51:52;102480.91;;;-7.97;100.00
77299;BME280;66361;52.034;20.656;2023-02-08T20:55:55;102476.72;;;-7.95;100.00
77299;BME280;66361;52.034;20.656;2023-02-08T20:59:58;102482.72;;;-7.95;100.00
77299;BME280;66361;52.034;20.656;2023-02-08T21:04:03;102473.50;;;-7.91;100.00
77299;BME280;66361;52.034;20.656;2023-02-08T21:08:07;102488.81;;;-7.93;100.00
77299;BME280;66361;52.034;20.656;2023-02-08T21:12:10;102470.53;;;-8.00;100.00
77299;BME280;66361;52.034;20.656;2023-02-08T21:16:16;102463.53;;;-8.03;100.00
77299;BME280;66361;52.034;20.656;2023-02-08T21:20:20;102471.59;;;-7.95;100.00
77299;BME280;66361;52.034;20.656;2023-02-08T21:24:24;102468.16;;;-7.96;100.00
77299;BME280;66361;52.034;20.656;2023-02-08T21:28:28;102468.84;;;-8.00;100.00
77299;BME280;66361;52.034;20.656;2023-02-08T21:32:32;102454.31;;;-7.99;100.00
77299;BME280;66361;52.034;20.656;2023-02-08T21:36:38;102461.00;;;-7.85;100.00
77299;BME280;66361;52.034;20.656;2023-02-08T21:40:41;102453.31;;;-7.85;100.00